Time;durP1;ratioP1;P1;durP2;ratioP2;P2;SDS_P1;SDS_P2;PMS_P1;PMS_P2;Temp;Humidity;BMP_temperature;BMP_pressure;BME280_temperature;BME280_humidity;BME280_pressure;Samples;Min_cycle;Max_cycle;Signal;HPM_P1;HPM_P2
2022/01/14 00:02:19;;;;;;;6.72;3.60;;;;;;;-1.45;89.21;96811.50;4788277;29;20110;-71
2022/01/14 00:04:44;;;;;;;6.75;3.55;;;;;;;-1.41;88.95;96802.50;4789702;29;20143;-71
2022/01/14 00:07:09;;;;;;;5.38;3.53;;;;;;;-1.29;89.25;96800.81;4789148;29;20145;-71
2022/01/14 00:09:35;;;;;;;3.33;2.80;;;;;;;-1.27;89.43;96788.50;4773297;29;20149;-70
2022/01/14 00:12:03;;;;;;;5.80;3.63;;;;;;;-1.30;89.76;96786.09;4814912;29;20056;-71
2022/01/14 00:17:01;;;;;;;6.57;3.90;;;;;;;-1.31;90.17;96769.56;4802885;29;20034;-71
2022/01/14 00:19:26;;;;;;;4.07;3.15;;;;;;;-1.19;90.10;96767.88;4807172;29;20065;-72
2022/01/14 00:21:51;;;;;;;4.07;2.92;;;;;;;-1.15;90.48;96758.88;4806796;29;20045;-71
2022/01/14 00:32:44;;;;;;;7.72;4.22;;;;;;;-1.03;90.83;96731.03;4789053;29;20037;-73
2022/01/14 00:34:55;;;;;;;4.32;3.38;;;;;;;-1.01;90.83;96724.72;4803065;29;20145;-72
2022/01/14 00:37:20;;;;;;;5.43;3.80;;;;;;;-0.94;91.11;96723.38;4772019;29;20137;-73
2022/01/14 00:39:46;;;;;;;3.53;2.78;;;;;;;-0.88;91.22;96716.84;4805887;29;20099;-73
2022/01/14 00:42:11;;;;;;;5.70;3.65;;;;;;;-0.90;90.96;96713.50;4806440;29;20046;-70
2022/01/14 00:44:36;;;;;;;5.03;3.03;;;;;;;-0.87;91.68;96702.84;4806096;29;20054;-72
2022/01/14 00:47:03;;;;;;;5.00;2.83;;;;;;;-0.81;91.92;96705.00;4803918;29;20061;-70
2022/01/14 00:49:27;;;;;;;2.67;2.08;;;;;;;-0.78;91.78;96695.16;4806223;29;20069;-71
2022/01/14 00:51:52;;;;;;;6.10;3.90;;;;;;;-0.73;92.00;96693.03;4787792;29;20057;-72
2022/01/14 00:54:18;;;;;;;4.05;3.55;;;;;;;-0.70;91.84;96678.91;4805325;29;20041;-72
2022/01/14 00:59:15;;;;;;;4.72;3.45;;;;;;;-0.67;92.35;96668.19;4805232;29;20054;-72
2022/01/14 01:01:42;;;;;;;4.95;3.20;;;;;;;-0.64;92.43;96665.38;4805646;29;20061;-70
2022/01/14 01:04:07;;;;;;;3.97;2.72;;;;;;;-0.60;92.19;96672.06;4789369;29;20081;-75
2022/01/14 01:06:32;;;;;;;3.30;2.35;;;;;;;-0.58;92.65;96664.09;4804604;29;20149;-73
2022/01/14 01:08:57;;;;;;;3.15;2.40;;;;;;;-0.57;92.80;96661.38;4775149;29;20455;-71
2022/01/14 01:11:28;;;;;;;4.70;3.00;;;;;;;-0.54;92.47;96636.72;4804539;29;20094;-75
2022/01/14 01:14:13;;;;;;;4.18;3.25;;;;;;;-0.54;92.80;96637.56;4787895;29;20054;-77
2022/01/14 01:16:39;;;;;;;2.90;2.15;;;;;;;-0.52;92.76;96622.59;4803116;29;20426;-75
2022/01/14 01:19:03;;;;;;;4.65;3.42;;;;;;;-0.52;92.59;96616.53;4806007;29;20433;-74
2022/01/14 01:21:28;;;;;;;2.20;2.00;;;;;;;-0.49;92.79;96603.22;4787215;29;20417;-74
2022/01/14 01:23:53;;;;;;;3.63;2.70;;;;;;;-0.46;92.78;96595.13;4804303;29;20151;-73
2022/01/14 01:26:26;;;;;;;4.07;2.88;;;;;;;-0.48;92.58;96592.63;4789329;29;20070;-76
2022/01/14 01:29:04;;;;;;;4.40;3.15;;;;;;;-0.46;93.25;96609.06;4803245;29;20053;-77
2022/01/14 01:31:35;;;;;;;6.35;3.42;;;;;;;-0.42;92.97;96609.63;4801943;29;20569;-68
2022/01/14 01:34:00;;;;;;;6.97;3.78;;;;;;;-0.42;93.43;96593.94;4787556;29;20149;-70
2022/01/14 01:36:24;;;;;;;4.35;2.70;;;;;;;-0.38;93.58;96598.84;4803528;29;20065;-69
2022/01/14 01:38:50;;;;;;;3.08;2.22;;;;;;;-0.35;93.72;96595.16;4804651;29;20050;-69
2022/01/14 01:41:17;;;;;;;4.40;3.00;;;;;;;-0.37;93.84;96586.59;4803406;29;20049;-69
2022/01/14 01:43:43;;;;;;;4.63;3.10;;;;;;;-0.33;93.95;96587.16;4804324;29;20512;-69
2022/01/14 01:46:08;;;;;;;5.32;2.83;;;;;;;-0.29;94.07;96583.38;4750670;29;20047;-68
2022/01/14 01:48:33;;;;;;;3.78;2.10;;;;;;;-0.23;94.16;96575.91;4765618;29;20065;-69
2022/01/14 01:50:58;;;;;;;8.52;3.22;;;;;;;-0.22;94.10;96571.47;4765415;29;20046;-70
2022/01/14 01:53:23;;;;;;;3.33;2.88;;;;;;;-0.28;93.99;96559.69;4765788;29;20054;-68
2022/01/14 01:55:48;;;;;;;3.03;2.25;;;;;;;-0.22;94.25;96553.13;4735571;29;20479;-67
2022/01/14 01:58:13;;;;;;;2.38;2.17;;;;;;;-0.21;94.20;96549.56;4766153;29;20424;-70
2022/01/14 02:00:37;;;;;;;3.00;2.53;;;;;;;-0.18;94.35;96554.59;4767317;29;20054;-72
2022/01/14 02:03:03;;;;;;;4.75;2.75;;;;;;;-0.15;94.26;96570.91;4767379;29;20051;-71
2022/01/14 02:05:28;;;;;;;2.67;2.17;;;;;;;-0.10;94.30;96558.25;4746725;30;20118;-73
2022/01/14 02:07:53;;;;;;;3.55;1.98;;;;;;;-0.11;94.28;96533.03;4748501;29;20228;-74
2022/01/14 02:10:19;;;;;;;2.35;1.67;;;;;;;-0.04;94.35;96536.84;4766087;29;20046;-74
2022/01/14 02:12:52;;;;;;;3.85;2.40;;;;;;;-0.06;94.04;96541.38;4766839;29;20058;-73
2022/01/14 02:18:29;;;;;;;2.45;1.95;;;;;;;-0.01;94.31;96505.19;4796280;29;20058;-75
2022/01/14 02:23:32;;;;;;;1.83;1.38;;;;;;;0.06;93.98;96508.16;4801083;29;20113;-74
2022/01/14 02:25:58;;;;;;;3.63;2.00;;;;;;;0.02;93.88;96506.72;4789866;29;20038;-74
2022/01/14 02:28:23;;;;;;;1.35;1.25;;;;;;;0.05;93.82;96498.63;4803843;29;20054;-75
2022/01/14 02:30:49;;;;;;;2.70;1.73;;;;;;;0.09;94.01;96489.59;4795952;29;20049;-71
2022/01/14 02:33:16;;;;;;;3.20;2.00;;;;;;;0.10;93.83;96480.78;4803370;29;20102;-71
2022/01/14 02:35:44;;;;;;;1.15;1.00;;;;;;;0.15;93.96;96470.75;4802448;29;20485;-70
2022/01/14 02:38:10;;;;;;;2.65;1.88;;;;;;;0.13;93.65;96479.66;4805490;29;20143;-70
2022/01/14 02:40:36;;;;;;;1.30;1.00;;;;;;;0.18;93.79;96480.16;4806446;29;20501;-70
2022/01/14 02:43:01;;;;;;;1.90;1.50;;;;;;;0.20;93.74;96467.75;4806317;29;20162;-70
2022/01/14 02:45:32;;;;;;;1.60;1.30;;;;;;;0.18;93.68;96456.56;4806699;29;20460;-70
2022/01/14 02:47:57;;;;;;;1.85;1.15;;;;;;;0.21;93.77;96454.56;4810914;29;20485;-70
2022/01/14 02:53:57;;;;;;;1.45;1.10;;;;;;;0.27;93.82;96435.69;4806494;29;20081;-71
2022/01/14 02:56:11;;;;;;;1.73;1.13;;;;;;;0.28;93.88;96423.44;4802217;29;20139;-66
2022/01/14 02:58:38;;;;;;;3.47;1.88;;;;;;;0.26;94.04;96405.22;4804565;29;20050;-65
2022/01/14 03:01:11;;;;;;;1.20;1.02;;;;;;;0.33;94.09;96422.13;4805180;29;20081;-65
2022/01/14 03:03:37;;;;;;;1.60;1.45;;;;;;;0.38;93.68;96418.28;4803540;29;20081;-66
2022/01/14 03:06:03;;;;;;;2.30;1.10;;;;;;;0.43;93.91;96409.09;4803751;29;20053;-65
2022/01/14 03:08:30;;;;;;;5.57;1.42;;;;;;;0.46;93.88;96408.81;4804821;29;20103;-66
2022/01/14 03:11:00;;;;;;;1.35;1.00;;;;;;;0.47;93.81;96415.72;4788376;29;20515;-62
2022/01/14 03:13:26;;;;;;;1.35;1.10;;;;;;;0.51;93.69;96395.34;4803298;29;20045;-65
2022/01/14 03:15:50;;;;;;;2.15;1.60;;;;;;;0.51;93.75;96390.09;4804076;29;20046;-67
2022/01/14 03:18:32;;;;;;;3.95;1.58;;;;;;;0.53;93.40;96390.81;4806145;29;20049;-68
2022/01/14 03:21:09;;;;;;;3.55;1.48;;;;;;;0.48;93.45;96377.25;4807441;29;20054;-68
2022/01/14 03:23:43;;;;;;;4.22;2.47;;;;;;;0.46;93.45;96371.28;4807089;29;20050;-69
2022/01/14 03:26:08;;;;;;;3.47;1.80;;;;;;;0.44;93.78;96368.81;4808746;29;20053;-68
2022/01/14 03:28:33;;;;;;;2.28;1.80;;;;;;;0.42;93.64;96349.78;4809517;29;20133;-68
2022/01/14 03:30:57;;;;;;;2.05;1.67;;;;;;;0.48;93.87;96343.19;4808451;29;20045;-68
2022/01/14 03:33:22;;;;;;;1.88;1.58;;;;;;;0.52;93.95;96334.09;4808562;29;20128;-67
2022/01/14 03:35:48;;;;;;;1.98;1.70;;;;;;;0.53;93.75;96336.59;4808988;29;20045;-68
2022/01/14 03:38:13;;;;;;;2.90;1.95;;;;;;;0.56;93.83;96335.53;4808498;29;20441;-67
2022/01/14 03:40:38;;;;;;;2.78;2.10;;;;;;;0.60;93.54;96326.41;4809210;29;20130;-68
2022/01/14 03:43:03;;;;;;;4.22;2.53;;;;;;;0.59;93.66;96322.97;4808604;29;20079;-69
2022/01/14 03:45:28;;;;;;;3.30;2.63;;;;;;;0.60;93.69;96313.31;4808153;29;20045;-65
2022/01/14 03:47:53;;;;;;;3.95;2.08;;;;;;;0.61;93.44;96325.47;4807795;29;20042;-64
2022/01/14 03:50:18;;;;;;;3.88;2.65;;;;;;;0.60;93.59;96319.38;4808668;29;20156;-67
2022/01/14 03:52:42;;;;;;;5.68;3.50;;;;;;;0.54;93.57;96317.31;4808077;29;20053;-67
2022/01/14 03:55:08;;;;;;;3.55;2.90;;;;;;;0.55;93.62;96300.63;4808136;29;20050;-67
2022/01/14 03:57:32;;;;;;;5.53;3.03;;;;;;;0.63;93.52;96299.97;4806705;29;20056;-65
2022/01/14 03:59:57;;;;;;;4.40;2.78;;;;;;;0.59;93.38;96288.06;4806946;29;20041;-65
2022/01/14 04:02:22;;;;;;;6.80;2.75;;;;;;;0.61;93.52;96280.91;4805183;29;20409;-66
2022/01/14 04:04:47;;;;;;;4.45;2.55;;;;;;;0.55;93.44;96273.59;4788897;29;20115;-66
2022/01/14 04:07:12;;;;;;;3.92;2.38;;;;;;;0.61;93.12;96275.66;4802768;29;20042;-66
2022/01/14 04:09:37;;;;;;;2.75;2.20;;;;;;;0.63;93.34;96264.09;4789549;29;20417;-66
2022/01/14 04:12:03;;;;;;;3.65;2.38;;;;;;;0.67;93.34;96262.88;4806247;29;20046;-66
2022/01/14 04:16:54;;;;;;;4.25;2.83;;;;;;;0.70;92.90;96259.97;4807271;29;20106;-66
2022/01/14 04:19:19;;;;;;;5.70;2.78;;;;;;;0.83;92.82;96259.75;4806350;29;20072;-66
2022/01/14 04:21:44;;;;;;;5.30;2.70;;;;;;;0.81;92.86;96247.72;4805875;29;20081;-65
2022/01/14 04:24:09;;;;;;;2.53;2.20;;;;;;;0.83;92.57;96254.50;4806215;29;20053;-65
2022/01/14 04:26:34;;;;;;;4.07;2.80;;;;;;;0.80;92.51;96239.03;4805950;29;20053;-66
2022/01/14 04:28:58;;;;;;;3.42;2.22;;;;;;;0.82;92.76;96239.75;4805903;29;20141;-66
2022/01/14 04:31:23;;;;;;;4.90;2.80;;;;;;;0.82;92.78;96221.38;4805217;29;20808;-66
2022/01/14 04:33:48;;;;;;;5.43;2.53;;;;;;;0.86;92.55;96212.31;4806110;29;20121;-66
2022/01/14 11:29:49;;;;;;;1.40;1.23;;;;;;;0.59;88.20;95403.09;5528960;24;21063;-68
2022/01/14 11:32:55;;;;;;;2.30;1.15;;;;;;;0.62;88.11;95397.56;4812597;29;20076;-67
2022/01/14 11:35:26;;;;;;;0.73;0.57;;;;;;;0.54;88.37;95388.81;4810144;29;20426;-68
2022/01/14 11:37:52;;;;;;;1.08;0.88;;;;;;;0.50;88.69;95379.59;4826400;29;20049;-68
2022/01/14 11:40:17;;;;;;;0.85;0.85;;;;;;;0.50;88.66;95369.13;4826447;29;20057;-69
2022/01/14 11:43:00;;;;;;;2.92;1.15;;;;;;;0.56;88.74;95368.53;4826606;29;20049;-68
2022/01/14 11:45:43;;;;;;;3.25;1.30;;;;;;;0.60;88.74;95365.44;4827750;29;20045;-69
2022/01/14 11:48:08;;;;;;;3.05;1.17;;;;;;;0.63;89.04;95357.28;4828391;29;20052;-68
2022/01/14 11:50:41;;;;;;;6.10;3.38;;;;;;;0.60;88.59;95362.00;4810049;29;20061;-68
2022/01/14 11:53:37;;;;;;;10.55;4.85;;;;;;;0.59;88.39;95355.94;4811175;29;20783;-67
2022/01/14 11:56:04;;;;;;;10.00;4.65;;;;;;;0.56;88.12;95355.44;4826460;29;20141;-68
2022/01/14 11:58:29;;;;;;;8.73;3.47;;;;;;;0.57;88.44;95341.34;4810047;29;20132;-70
2022/01/14 12:00:55;;;;;;;2.67;2.03;;;;;;;0.58;88.55;95340.34;4813505;29;20055;-73
2022/01/14 12:03:26;;;;;;;2.42;2.13;;;;;;;0.51;87.91;95334.91;4826173;29;20112;-73
2022/01/14 12:05:50;;;;;;;3.83;1.55;;;;;;;0.39;87.59;95322.22;4822821;29;20053;-71
2022/01/14 12:08:17;;;;;;;2.33;1.83;;;;;;;0.32;87.97;95338.56;4813525;29;20041;-69
2022/01/14 12:11:06;;;;;;;3.28;1.63;;;;;;;0.34;87.69;95331.34;4826242;29;20050;-73
2022/01/14 12:13:49;;;;;;;3.42;0.90;;;;;;;0.38;87.61;95336.28;4810968;29;20057;-75
2022/01/14 12:16:24;;;;;;;2.28;1.25;;;;;;;0.38;87.93;95325.81;4810829;29;20077;-70
2022/01/14 12:19:00;;;;;;;1.98;1.33;;;;;;;0.35;88.03;95327.75;4795395;29;20448;-67
2022/01/14 12:21:37;;;;;;;3.22;1.63;;;;;;;0.31;87.63;95325.63;4826314;29;20049;-72
2022/01/14 12:24:02;;;;;;;3.67;1.80;;;;;;;0.17;87.54;95320.91;4826083;29;20053;-69
2022/01/14 12:26:27;;;;;;;5.15;2.05;;;;;;;0.19;87.71;95321.59;4809270;29;20045;-68
2022/01/14 12:29:13;;;;;;;4.03;1.98;;;;;;;0.31;87.73;95326.44;4825794;29;20060;-68
2022/01/14 12:32:13;;;;;;;3.22;2.28;;;;;;;0.36;88.19;95316.31;4794781;29;20081;-69
2022/01/14 12:34:56;;;;;;;4.93;1.92;;;;;;;0.27;87.97;95325.09;4789794;29;20405;-70
2022/01/14 12:37:41;;;;;;;4.75;2.35;;;;;;;0.23;88.09;95320.28;4773039;29;20057;-70
2022/01/14 12:40:06;;;;;;;4.93;2.17;;;;;;;0.27;88.19;95311.16;4788039;29;20532;-70
2022/01/14 12:42:31;;;;;;;5.15;2.72;;;;;;;0.24;88.55;95307.03;4788880;29;20054;-69
2022/01/14 12:44:56;;;;;;;4.72;2.58;;;;;;;0.19;88.41;95311.94;4788348;29;20114;-69
2022/01/14 12:47:30;;;;;;;2.85;2.10;;;;;;;0.18;88.55;95309.47;4788128;29;20922;-67
2022/01/14 12:49:55;;;;;;;4.28;1.98;;;;;;;0.02;88.14;95304.91;4790073;29;20050;-69
2022/01/14 12:52:37;;;;;;;3.47;2.20;;;;;;;0.01;88.49;95311.13;4788729;29;20054;-66
2022/01/14 12:55:04;;;;;;;6.97;2.38;;;;;;;-0.04;88.50;95308.97;4788263;29;20069;-71
2022/01/14 12:57:31;;;;;;;1.67;1.58;;;;;;;0.03;88.62;95308.34;4758042;29;20808;-69
2022/01/14 12:59:56;;;;;;;4.47;1.90;;;;;;;-0.03;88.61;95294.09;4787528;29;20387;-69
2022/01/14 13:02:24;;;;;;;4.03;2.72;;;;;;;-0.12;89.10;95293.19;4772390;29;20471;-71
2022/01/14 13:05:21;;;;;;;2.67;1.95;;;;;;;-0.06;88.98;95294.38;4789095;29;20129;-70
2022/01/14 13:07:47;;;;;;;3.78;2.70;;;;;;;-0.14;89.20;95286.47;4787630;29;20571;-70
2022/01/14 13:10:14;;;;;;;11.18;3.45;;;;;;;-0.16;89.03;95294.47;4787594;29;20213;-70
2022/01/14 13:12:44;;;;;;;5.63;2.63;;;;;;;-0.10;89.08;95285.19;4788939;29;20416;-68
2022/01/14 13:15:17;;;;;;;4.85;2.45;;;;;;;-0.16;89.22;95278.75;4787974;29;20084;-69
2022/01/14 13:17:53;;;;;;;5.47;2.75;;;;;;;-0.32;88.92;95286.47;4789312;29;20061;-69
2022/01/14 13:20:21;;;;;;;3.60;2.70;;;;;;;-0.37;88.83;95281.69;4788853;29;20050;-69
2022/01/14 13:22:48;;;;;;;5.00;2.65;;;;;;;-0.29;89.28;95275.69;4772104;29;20042;-69
2022/01/14 13:25:23;;;;;;;6.63;2.65;;;;;;;-0.34;89.29;95279.75;4787406;29;20129;-69
2022/01/14 13:27:58;;;;;;;8.15;3.33;;;;;;;-0.34;89.17;95292.84;4788719;29;20046;-69
2022/01/14 13:30:35;;;;;;;4.82;2.22;;;;;;;-0.28;89.51;95300.06;4791067;29;20053;-68
2022/01/14 13:33:08;;;;;;;4.35;2.38;;;;;;;-0.22;89.63;95302.91;4793468;29;20060;-68
2022/01/14 13:35:37;;;;;;;2.05;1.67;;;;;;;-0.19;89.44;95317.50;4824896;29;20050;-68
2022/01/14 13:38:05;;;;;;;5.88;2.10;;;;;;;-0.12;89.71;95316.75;4824916;29;20054;-68
2022/01/14 13:40:32;;;;;;;2.28;1.90;;;;;;;-0.05;89.87;95311.72;4824911;29;20057;-69
2022/01/14 13:43:08;;;;;;;4.47;2.40;;;;;;;0.03;90.05;95330.13;4825119;29;20045;-69
2022/01/14 13:45:42;;;;;;;8.82;2.58;;;;;;;0.09;90.17;95329.53;4809584;29;20057;-69
2022/01/14 13:48:25;;;;;;;4.22;2.15;;;;;;;-0.01;89.89;95327.00;4780841;29;20137;-68
2022/01/14 13:50:56;;;;;;;3.53;1.80;;;;;;;0.11;89.96;95339.88;4824748;29;20053;-69
2022/01/14 13:53:36;;;;;;;1.77;1.65;;;;;;;0.14;90.02;95350.84;4808103;29;20171;-69
2022/01/14 13:56:14;;;;;;;1.27;1.15;;;;;;;0.11;89.65;95345.91;4792265;29;20469;-69
2022/01/14 13:58:49;;;;;;;3.67;1.60;;;;;;;0.09;89.71;95360.13;4824175;29;20053;-69
2022/01/14 14:01:18;;;;;;;4.45;1.38;;;;;;;0.12;89.81;95363.25;4823991;29;20128;-69
2022/01/14 14:04:10;;;;;;;1.70;0.82;;;;;;;0.18;89.45;95361.84;4807499;29;20045;-68
2022/01/14 14:06:44;;;;;;;2.13;1.33;;;;;;;0.09;89.09;95363.56;4824050;29;20053;-69
2022/01/14 14:09:20;;;;;;;4.85;1.75;;;;;;;-0.01;88.76;95360.22;4824076;29;20108;-69
2022/01/14 14:17:17;;;;;;;1.55;0.98;;;;;;;-0.07;88.83;95373.88;4807453;29;20076;-69
2022/01/14 14:19:53;;;;;;;2.05;1.13;;;;;;;-0.11;89.01;95368.09;4807718;29;20057;-68
2022/01/14 14:22:25;;;;;;;1.10;0.95;;;;;;;-0.12;88.90;95376.13;4824350;29;20073;-69
2022/01/14 14:25:00;;;;;;;4.00;1.45;;;;;;;-0.11;88.97;95372.53;4792587;29;20053;-69
2022/01/14 14:27:26;;;;;;;1.65;1.40;;;;;;;-0.16;88.57;95378.22;4824341;29;20034;-69
2022/01/14 14:29:56;;;;;;;1.65;1.23;;;;;;;-0.11;88.82;95378.56;4808865;29;20053;-69
2022/01/14 14:32:34;;;;;;;4.07;0.93;;;;;;;-0.19;88.54;95383.75;4808350;29;20119;-69
2022/01/14 14:35:06;;;;;;;1.75;1.52;;;;;;;-0.16;88.19;95380.00;4824040;29;20420;-69
2022/01/14 14:37:34;;;;;;;1.17;0.80;;;;;;;-0.16;88.59;95374.78;4823687;29;20404;-69
2022/01/14 14:40:29;;;;;;;1.73;1.00;;;;;;;-0.14;88.43;95391.97;4823937;29;20049;-69
2022/01/14 14:45:48;;;;;;;1.55;1.42;;;;;;;-0.30;88.59;95393.59;4807356;29;20045;-70
2022/01/14 14:48:13;;;;;;;1.73;1.15;;;;;;;-0.39;88.07;95385.66;4823539;29;20053;-69
2022/01/14 14:53:29;;;;;;;3.50;2.13;;;;;;;-0.61;88.16;95395.69;4824566;29;20045;-69
2022/01/14 14:55:54;;;;;;;3.83;1.73;;;;;;;-0.63;88.70;95395.00;4807444;29;20053;-68
2022/01/14 14:58:19;;;;;;;3.00;1.38;;;;;;;-0.64;88.21;95388.97;4794180;29;20215;-68
2022/01/14 15:00:45;;;;;;;1.75;1.52;;;;;;;-0.68;88.28;95395.47;4811160;29;20041;-73
2022/01/14 15:03:12;;;;;;;4.75;1.52;;;;;;;-0.76;88.39;95397.94;4825951;29;20056;-71
2022/01/14 15:05:39;;;;;;;1.77;1.33;;;;;;;-0.74;88.61;95401.25;4793406;29;20583;-70
2022/01/14 15:08:07;;;;;;;2.95;2.17;;;;;;;-0.86;88.37;95400.59;4807496;29;20048;-70
2022/01/14 15:10:32;;;;;;;5.03;1.90;;;;;;;-0.82;88.37;95395.94;4791975;29;20061;-69
2022/01/14 15:12:59;;;;;;;2.10;1.38;;;;;;;-0.83;88.94;95407.34;4807675;29;20148;-69
2022/01/14 15:15:47;;;;;;;2.15;1.90;;;;;;;-1.00;87.75;95410.69;4809973;29;20481;-69
2022/01/14 15:18:12;;;;;;;2.25;1.35;;;;;;;-0.97;88.33;95411.25;4810677;29;20072;-69
2022/01/14 15:20:38;;;;;;;2.47;1.60;;;;;;;-1.02;88.30;95416.09;4810406;29;20045;-72
2022/01/14 15:23:09;;;;;;;2.15;1.50;;;;;;;-0.98;88.45;95421.84;4827281;29;20527;-70
2022/01/14 15:25:39;;;;;;;1.90;1.40;;;;;;;-0.93;88.42;95417.84;4810392;29;20053;-71
2022/01/14 15:28:05;;;;;;;3.38;1.70;;;;;;;-1.04;87.88;95419.81;4827071;29;20143;-69
2022/01/14 15:30:30;;;;;;;2.40;1.77;;;;;;;-0.91;88.23;95420.31;4826932;29;20083;-68
2022/01/14 15:32:56;;;;;;;2.33;2.00;;;;;;;-0.91;87.92;95417.72;4826895;29;20060;-69
2022/01/14 15:35:22;;;;;;;3.40;1.95;;;;;;;-0.89;87.97;95428.81;4827252;29;20061;-67
2022/01/14 15:37:48;;;;;;;1.60;1.48;;;;;;;-0.89;88.26;95437.50;4813104;29;20037;-68
2022/01/14 15:40:19;;;;;;;4.30;1.70;;;;;;;-0.85;88.19;95438.84;4829965;29;20412;-68
2022/01/14 15:42:44;;;;;;;2.08;1.52;;;;;;;-0.84;88.39;95443.13;4827664;29;20053;-69
2022/01/14 15:45:10;;;;;;;2.45;1.52;;;;;;;-0.87;87.79;95442.56;4827108;29;20110;-69
2022/01/14 15:47:37;;;;;;;6.03;2.15;;;;;;;-0.88;87.68;95440.94;4810312;29;20799;-70
2022/01/14 15:50:07;;;;;;;3.70;2.05;;;;;;;-0.82;87.70;95448.22;4826498;29;20065;-68
2022/01/14 15:52:33;;;;;;;3.28;2.03;;;;;;;-0.80;87.32;95441.88;4827027;29;20049;-69
2022/01/14 15:54:58;;;;;;;2.88;1.50;;;;;;;-0.78;87.46;95442.53;4810143;29;20046;-67
2022/01/14 15:57:23;;;;;;;3.85;2.20;;;;;;;-0.86;86.68;95452.06;4826530;29;20049;-69
2022/01/14 15:59:48;;;;;;;5.00;2.03;;;;;;;-0.81;86.87;95453.31;4826498;29;20098;-69
2022/01/14 16:02:13;;;;;;;5.50;2.10;;;;;;;-0.73;86.92;95449.97;4826597;29;20133;-68
2022/01/14 16:04:39;;;;;;;3.00;1.70;;;;;;;-0.70;87.05;95454.91;4809740;29;20128;-69
2022/01/14 16:07:06;;;;;;;1.55;1.02;;;;;;;-0.76;86.31;95455.47;4826185;29;20041;-67
2022/01/14 16:09:31;;;;;;;2.90;1.85;;;;;;;-0.88;86.35;95460.06;4809955;29;20056;-69
2022/01/14 16:11:58;;;;;;;1.60;1.50;;;;;;;-0.79;86.14;95466.25;4826409;29;20101;-71
2022/01/14 16:14:31;;;;;;;1.88;1.33;;;;;;;-0.73;86.58;95461.25;4809969;29;20118;-69
2022/01/14 16:16:56;;;;;;;1.27;0.98;;;;;;;-0.73;86.64;95460.44;4827275;29;20117;-68
2022/01/14 16:19:21;;;;;;;2.95;1.80;;;;;;;-0.80;86.46;95454.13;4793418;29;20081;-70
2022/01/14 16:21:47;;;;;;;2.60;1.58;;;;;;;-0.70;87.08;95488.91;4794334;29;20080;-69
2022/01/14 16:24:13;;;;;;;1.75;1.35;;;;;;;-0.86;86.18;95486.06;4810690;29;20079;-71
2022/01/14 16:26:37;;;;;;;3.75;1.35;;;;;;;-0.85;85.24;95485.09;4812561;29;20114;-68
2022/01/14 16:29:04;;;;;;;1.30;0.77;;;;;;;-0.84;85.44;95505.88;4814169;29;20504;-67
2022/01/14 16:31:29;;;;;;;1.70;1.02;;;;;;;-0.68;86.09;95504.47;4800858;29;20141;-68
2022/01/14 16:33:54;;;;;;;3.00;1.80;;;;;;;-0.67;87.51;95506.91;4789327;29;20107;-69
2022/01/14 16:36:19;;;;;;;3.40;1.98;;;;;;;-0.75;87.76;95505.03;4756750;29;20068;-69
2022/01/14 16:38:44;;;;;;;2.50;1.27;;;;;;;-0.71;88.25;95517.81;4758037;29;20066;-68
2022/01/14 16:41:10;;;;;;;1.90;1.48;;;;;;;-0.78;87.73;95517.53;4790463;29;20053;-72
2022/01/14 16:43:36;;;;;;;2.78;1.35;;;;;;;-0.65;88.13;95527.69;4788199;29;20054;-71
2022/01/14 16:46:04;;;;;;;1.67;1.35;;;;;;;-0.64;88.77;95518.88;4789606;29;20554;-70
2022/01/14 16:48:30;;;;;;;4.63;3.13;;;;;;;-0.74;88.98;95532.81;4788750;29;20077;-68
2022/01/14 16:50:56;;;;;;;6.60;3.72;;;;;;;-0.78;88.68;95526.22;4789536;29;20042;-67
2022/01/14 16:53:28;;;;;;;5.43;3.35;;;;;;;-0.68;88.99;95531.44;4788401;29;20045;-70
2022/01/14 16:55:54;;;;;;;5.25;2.85;;;;;;;-0.76;88.65;95529.50;4789530;29;20042;-69
2022/01/14 16:58:23;;;;;;;3.83;1.65;;;;;;;-0.75;88.90;95535.56;4790122;29;20047;-68
2022/01/14 17:00:50;;;;;;;2.92;2.33;;;;;;;-0.82;88.56;95544.94;4787548;29;20042;-68
2022/01/14 17:03:17;;;;;;;2.70;1.20;;;;;;;-0.87;88.12;95547.97;4787758;29;20105;-69
2022/01/14 17:05:47;;;;;;;3.58;1.70;;;;;;;-0.87;87.17;95547.97;4789436;29;20066;-70
2022/01/14 17:08:12;;;;;;;4.30;2.17;;;;;;;-0.86;87.64;95548.81;4788661;29;20122;-69
2022/01/14 17:10:38;;;;;;;5.15;1.98;;;;;;;-0.83;87.97;95548.53;4789251;29;20203;-69
2022/01/14 17:13:04;;;;;;;2.08;1.30;;;;;;;-0.88;87.24;95543.72;4785174;29;20098;-71
2022/01/14 17:15:30;;;;;;;6.68;1.55;;;;;;;-0.97;85.84;95555.00;4788725;29;20137;-71
2022/01/14 17:17:57;;;;;;;2.53;1.55;;;;;;;-1.04;84.04;95540.03;4787507;29;20043;-69
2022/01/14 17:20:23;;;;;;;3.85;1.65;;;;;;;-0.86;84.67;95540.97;4788641;29;20428;-68
2022/01/14 17:22:49;;;;;;;2.25;1.20;;;;;;;-0.79;86.09;95550.69;4787864;29;20826;-68
2022/01/14 17:25:18;;;;;;;2.13;1.13;;;;;;;-0.86;86.40;95551.41;4788642;29;20046;-68
2022/01/14 17:27:44;;;;;;;5.30;1.55;;;;;;;-1.00;86.80;95564.91;4788609;29;20038;-70
2022/01/14 17:30:10;;;;;;;3.05;2.15;;;;;;;-1.17;86.01;95561.22;4788824;29;20061;-68
2022/01/14 17:32:37;;;;;;;1.63;0.90;;;;;;;-1.23;85.14;95561.75;4787565;29;20059;-69
2022/01/14 17:35:04;;;;;;;4.18;1.45;;;;;;;-1.18;85.33;95560.38;4787389;29;20050;-69
2022/01/14 17:37:33;;;;;;;2.17;1.55;;;;;;;-1.21;84.74;95565.88;4771915;29;20135;-68
2022/01/14 17:40:03;;;;;;;2.08;1.38;;;;;;;-1.19;84.44;95563.97;4788573;29;20050;-68
2022/01/14 17:42:28;;;;;;;2.83;0.93;;;;;;;-1.24;83.92;95573.97;4788720;29;20405;-68
2022/01/14 17:44:54;;;;;;;3.38;1.10;;;;;;;-1.38;82.61;95573.59;4788545;29;20054;-68
2022/01/14 17:47:19;;;;;;;2.03;1.83;;;;;;;-1.23;84.57;95588.69;4791116;29;20039;-69
2022/01/14 17:49:44;;;;;;;1.27;1.10;;;;;;;-1.20;84.22;95595.44;4788564;29;20054;-68
2022/01/14 17:52:11;;;;;;;2.03;1.58;;;;;;;-1.23;83.07;95590.47;4788035;29;20073;-68
2022/01/14 17:54:36;;;;;;;2.22;0.85;;;;;;;-1.27;82.56;95584.72;4788305;29;20092;-68
2022/01/14 17:57:03;;;;;;;2.30;1.05;;;;;;;-1.12;84.57;95587.75;4787834;29;20046;-68
2022/01/14 17:59:28;;;;;;;1.80;1.40;;;;;;;-1.18;84.82;95591.75;4788046;29;20042;-69
2022/01/14 18:01:53;;;;;;;1.95;1.20;;;;;;;-1.21;83.79;95607.69;4787964;29;20048;-68
2022/01/14 18:04:22;;;;;;;1.52;0.93;;;;;;;-1.18;84.13;95612.66;4788296;29;20145;-68
2022/01/14 18:06:49;;;;;;;2.20;1.33;;;;;;;-1.22;82.93;95608.66;4785166;29;20041;-70
2022/01/14 18:09:16;;;;;;;3.13;1.25;;;;;;;-1.18;83.53;95614.44;4787269;29;20046;-70
2022/01/14 18:11:43;;;;;;;2.67;1.92;;;;;;;-1.13;85.11;95622.69;4788831;29;20050;-69
2022/01/14 18:14:20;;;;;;;1.60;0.85;;;;;;;-1.10;86.07;95636.31;4787593;29;20046;-69
2022/01/14 18:16:50;;;;;;;3.03;0.95;;;;;;;-1.16;86.55;95642.09;4778012;29;20050;-75
2022/01/14 18:19:17;;;;;;;1.88;0.88;;;;;;;-1.21;86.18;95639.03;4773849;29;20051;-72
2022/01/14 18:21:43;;;;;;;1.00;0.60;;;;;;;-1.24;85.89;95648.97;4770504;29;20076;-77
2022/01/14 18:24:08;;;;;;;0.77;0.50;;;;;;;-1.25;84.55;95663.81;4739984;29;20088;-74
2022/01/14 18:26:35;;;;;;;0.95;0.95;;;;;;;-1.23;84.77;95656.63;4770588;29;20054;-79
2022/01/14 18:29:00;;;;;;;4.15;0.95;;;;;;;-1.22;84.43;95662.69;4770599;29;20057;-76
2022/01/14 18:31:25;;;;;;;2.42;1.38;;;;;;;-1.35;82.20;95681.22;4783099;29;20058;-75
2022/01/14 18:33:51;;;;;;;1.10;0.80;;;;;;;-1.23;82.38;95674.91;4792665;29;20084;-73
2022/01/14 18:36:18;;;;;;;1.08;0.80;;;;;;;-1.17;82.69;95677.00;4790467;29;20073;-75
2022/01/14 18:38:45;;;;;;;1.67;1.08;;;;;;;-1.18;83.07;95677.97;4820693;29;20050;-76
2022/01/14 18:41:13;;;;;;;2.10;0.70;;;;;;;-1.16;82.72;95688.28;4815438;29;20828;-75
2022/01/14 18:43:40;;;;;;;2.22;1.13;;;;;;;-1.13;82.72;95693.25;4808355;29;20421;-72
2022/01/14 18:46:07;;;;;;;1.73;1.25;;;;;;;-1.11;83.20;95697.38;4808794;29;20523;-76
2022/01/14 18:48:34;;;;;;;2.78;1.45;;;;;;;-1.09;84.70;95707.69;4808074;29;20073;-75
2022/01/14 18:51:01;;;;;;;3.03;1.30;;;;;;;-1.08;85.42;95708.53;4779412;29;20050;-77
2022/01/14 18:53:27;;;;;;;1.25;0.98;;;;;;;-1.05;85.83;95710.88;4794792;29;20052;-75
2022/01/14 18:55:52;;;;;;;1.80;1.20;;;;;;;-1.15;85.23;95711.69;4810715;29;20126;-74
2022/01/14 18:58:18;;;;;;;2.78;1.42;;;;;;;-1.11;85.45;95702.59;4778880;29;20057;-77
2022/01/14 19:00:44;;;;;;;1.20;0.77;;;;;;;-1.14;85.39;95715.13;4795862;29;20540;-78
2022/01/14 19:03:09;;;;;;;1.40;1.00;;;;;;;-1.12;85.17;95719.22;4794749;29;20050;-74
2022/01/14 19:05:34;;;;;;;2.65;1.45;;;;;;;-1.25;84.15;95718.69;4794839;29;20110;-75
2022/01/14 19:08:01;;;;;;;1.60;0.85;;;;;;;-1.19;84.36;95732.97;4794339;29;20054;-75
2022/01/14 19:10:29;;;;;;;1.95;1.13;;;;;;;-1.24;82.84;95720.31;4778743;29;20136;-76
2022/01/14 19:12:55;;;;;;;4.10;0.90;;;;;;;-1.27;81.96;95730.22;4794755;29;20408;-75